Felch, Michigan
Current Conditions -  °F | °C
As of 9:54 AM on Sunday 21 Dec 2014 (Local Time) from KIMT Reporting Station
Haze Haze  
Wind Chill: 20°   Ceiling: 400
Heat Index: 28°   Visibility: 1.7mi
Dew Point: 25°   Wind: 8mph
Humidity: 88%   Direction: 140°SE
Pressure: 30.06"   Gusts: NA
Location:  46°N, 87.83°W
Report Text: KIMT 211554Z AUTO 14007KT 1 3/4SM BR OVC004 M02/M04 A3006 RMK AO2 SLP198 I1000 T10221039
Loading
Personal Weather Stations






























Interactive Weather Map New forecast layout! Learn more

10-Day Weather Forecast

Advertisements
Track Severe Weather on mobile